Mojave, California
Current Conditions -  °F | °C
As of 9:55 AM on Friday 21 Nov 2014 (Local Time) from KMHV Reporting Station
Clear Clear  
Wind Chill: 57°   Ceiling: Unl
Heat Index: 57°   Visibility: 10mi
Dew Point: 36°   Wind: 21mph
Humidity: 44%   Direction: 270°W
Pressure: 30.02"   Gusts: 25mph
Location:  35.05°N, 118.15°W
Report Text: KMHV 211755Z AUTO 27018G22KT 10SM CLR 14/02 A3002 RMK AO1
Loading
Personal Weather Stations






























Interactive Weather Map New forecast layout! Learn more

10-Day Weather Forecast

Advertisements
Track Severe Weather on mobile